Latest Weather Observations for Tuggeranong

IDN60801

Issued at 10:32 am EST Monday 3 August 2015 (issued every 30 minutes, with the page automatically refreshed every 10 minutes)

About weather observations | Map of weather stations | Latest weather observations for NSW | Other Formats
Station Details ID: 070339 Name: TUGGERANONG (ISABELLA PLAINS) AWS Lat: -35.42 Lon: 149.09 Height: 586.7 m
Data from the previous 72 hours. | See also: Recent months at Tuggeranong
Date/Time
EST
Temp
°C
App
Temp
°C
Dew
Point
Rel
Hum
%
Delta-T
°C
Wind Press
QNH
hPa
Press
MSL
hPa
Rain
since 9 am
mm
Dir
 
Spd
km/h
Gust
km/h
Spd
kts
Gust
kts
03/10:30am 9.5 2.8 1.2 56 3.5 WNW 26 39 14 21 1013.1 1013.8 0.0
03/10:00am 8.9 2.2 1.3 59 3.2 NW 26 43 14 23 1013.1 1013.8 0.0
03/09:30am 8.8 2.1 1.2 59 3.2 WNW 26 37 14 20 1012.9 1013.5 0.0
03/09:00am 8.4 1.9 0.4 57 3.3 WNW 24 35 13 19 1012.9 1013.5 21.2
03/08:30am 7.9 2.3 1.1 62 2.8 WNW 20 39 11 21 1013.0 1013.6 21.2
03/08:00am 7.6 0.7 0.3 60 3.0 WNW 26 39 14 21 1012.6 1013.2 21.2
03/07:30am 6.9 0.4 0.4 63 2.7 WNW 24 35 13 19 1012.4 1013.0 21.2
03/07:00am 6.7 0.7 1.0 67 2.4 WNW 22 33 12 18 1012.1 1012.7 21.2
03/06:30am 6.7 0.0 1.4 69 2.2 WNW 26 43 14 23 1011.6 1012.3 21.2
03/06:00am 6.7 -0.1 0.8 66 2.4 WNW 26 39 14 21 1011.4 1012.0 21.2
03/05:30am 7.0 -0.6 0.7 64 2.6 WNW 30 50 16 27 1011.6 1012.3 21.2
03/05:08am 7.1 -0.8 1.0 65 2.5 WNW 32 50 17 27 1011.3 1011.9 21.2
03/05:00am 7.0 -0.9 0.9 65 2.5 WNW 32 46 17 25 1011.5 1012.1 21.2
03/04:48am 7.3 -0.6 1.0 64 2.6 WNW 32 50 17 27 1011.5 1012.1 21.2
03/04:30am 6.8 -0.7 1.1 67 2.4 WNW 30 43 16 23 1011.6 1012.3 21.2
03/04:00am 7.0 -0.8 1.5 68 2.3 WNW 32 52 17 28 1011.9 1012.6 21.2
03/03:42am 7.0 -0.4 2.1 71 2.1 WNW 30 52 16 28 1012.1 1012.7 21.2
03/03:30am 7.0 -0.8 1.9 70 2.2 WNW 32 48 17 26 1012.1 1012.7 21.2
03/03:02am 6.9 -1.1 1.6 69 2.2 WNW 33 52 18 28 1012.2 1012.8 21.2
03/03:00am 7.0 -1.4 1.7 69 2.2 WNW 35 52 19 28 1012.3 1012.9 21.2
03/02:46am 6.9 -1.1 1.4 68 2.3 WNW 33 52 18 28 1012.3 1012.9 21.2
03/02:30am 6.8 -1.6 1.7 70 2.1 WNW 35 50 19 27 1012.7 1013.3 21.2
03/02:25am 6.9 -0.9 1.4 68 2.3 WNW 32 50 17 27 1012.7 1013.3 21.2
03/02:00am 6.8 -1.1 1.3 68 2.3 WNW 32 44 17 24 1013.1 1013.8 21.2
03/01:40am 6.9 -1.0 1.2 67 2.4 WNW 32 50 17 27 1013.3 1014.0 21.2
03/01:30am 6.6 -0.5 1.1 68 2.3 W 28 44 15 24 1013.4 1014.1 21.2
03/01:00am 6.6 1.0 0.9 67 2.3 W 20 28 11 15 1014.0 1014.6 21.2
03/12:30am 6.3 1.9 0.6 67 2.3 WNW 13 20 7 11 1014.6 1015.3 21.2
03/12:00am 5.6 2.4 -0.7 64 2.5 N 6 17 3 9 1015.0 1015.7 21.2
 
Date/Time
EST
Temp
°C
App
Temp
°C
Dew
Point
Rel
Hum
%
Delta-T
°C
Wind Press
QNH
hPa
Press
MSL
hPa
Rain
since 9 am
mm
Dir
 
Spd
km/h
Gust
km/h
Spd
kts
Gust
kts
02/11:30pm 5.9 2.4 -1.0 61 2.7 NNW 7 11 4 6 1015.3 1016.0 21.2
02/11:00pm 5.9 1.7 -0.8 62 2.6 N 11 20 6 11 1015.4 1016.1 21.2
02/10:30pm 5.5 1.3 -0.8 64 2.5 N 11 19 6 10 1015.4 1016.1 21.2
02/10:00pm 5.4 1.2 -0.6 65 2.3 NNE 11 19 6 10 1015.5 1016.2 21.2
02/09:30pm 5.5 1.3 -0.8 64 2.5 N 11 17 6 9 1015.7 1016.3 21.2
02/09:00pm 5.5 1.4 -0.1 67 2.2 NNE 11 17 6 9 1015.5 1016.2 21.2
02/08:30pm 6.1 1.3 0.0 65 2.4 N 15 20 8 11 1015.4 1016.1 21.2
02/08:00pm 6.4 2.0 0.5 66 2.4 NNE 13 20 7 11 1015.4 1016.1 21.2
02/07:30pm 6.6 1.8 0.5 65 2.5 N 15 24 8 13 1014.9 1015.6 21.2
02/07:00pm 7.1 2.0 0.8 64 2.6 N 17 30 9 16 1014.7 1015.4 21.2
02/06:30pm 7.5 2.5 1.4 65 2.6 N 17 24 9 13 1014.2 1014.8 21.2
02/06:00pm 7.9 3.0 1.7 65 2.6 N 17 24 9 13 1013.9 1014.5 21.2
02/05:30pm 8.8 5.5 2.2 63 2.9 NE 9 17 5 9 1013.4 1014.1 21.2
02/05:00pm 9.6 4.4 3.4 65 2.8 WNW 20 33 11 18 1011.9 1012.6 21.0
02/04:30pm 9.6 4.3 4.8 72 2.2 WNW 22 35 12 19 1011.6 1012.3 20.6
02/04:00pm 10.3 5.8 6.1 75 2.0 NW 19 28 10 15 1012.1 1012.7 20.0
02/03:30pm 11.0 6.7 6.9 76 2.0 NW 19 26 10 14 1011.6 1012.3 19.2
02/03:00pm 10.1 7.1 7.7 85 1.2 NNW 13 20 7 11 1011.3 1011.9 18.4
02/02:30pm 9.9 7.8 8.3 90 0.8 NNW 9 15 5 8 1010.7 1011.3 17.4
02/02:00pm 9.9 5.5 7.5 85 1.2 NW 20 37 11 20 1011.4 1012.0 16.2
02/01:30pm 11.7 7.8 7.0 73 2.3 NW 17 24 9 13 1010.5 1011.1 14.8
02/01:00pm 11.6 9.0 7.7 77 2.0 NW 11 20 6 11 1010.5 1011.1 13.2
02/12:30pm 12.0 8.1 6.9 71 2.5 NW 17 26 9 14 1011.2 1011.8 11.4
02/12:00pm 12.3 8.5 7.4 72 2.5 NNW 17 26 9 14 1011.5 1012.1 9.0
02/11:30am 12.1 9.0 7.2 72 2.4 NNW 13 28 7 15 1011.9 1012.6 6.4
02/11:00am 11.7 8.3 7.8 77 2.0 N 15 20 8 11 1012.3 1012.9 4.2
02/10:30am 10.7 8.3 8.8 88 1.0 NE 11 15 6 8 1012.9 1013.5 2.0
02/10:00am 9.8 8.2 8.7 93 0.6 NNE 7 13 4 7 1013.5 1014.2 1.2
02/09:30am 8.7 8.0 8.6 99 0.1 NNE 2 7 1 4 1013.5 1014.2 0.6
02/09:00am 8.3 7.5 8.3 100 0.0 NNW 2 7 1 4 1013.7 1014.4 18.0
02/08:30am 8.2 7.8 8.1 99 0.0 CALM 0 0 0 0 1013.9 1014.5 17.2
02/08:00am 8.1 7.3 8.0 99 0.0 WNW 2 6 1 3 1014.1 1014.7 16.6
02/07:30am 8.1 6.3 8.0 99 0.0 SW 7 11 4 6 1014.0 1014.6 15.8
02/07:00am 8.0 5.8 8.0 100 0.0 NE 9 15 5 8 1014.2 1014.8 15.0
02/06:30am 8.0 5.5 8.0 100 0.0 NE 11 17 6 9 1014.6 1015.3 14.2
02/06:00am 7.9 7.0 7.9 100 0.0 NNE 2 7 1 4 1015.1 1015.8 13.2
02/05:30am 8.0 5.8 8.0 100 0.0 ENE 9 13 5 7 1014.9 1015.6 12.4
02/05:00am 8.0 5.8 8.0 100 0.0 E 9 13 5 7 1014.8 1015.5 11.4
02/04:30am 8.0 6.2 8.0 100 0.0 ENE 7 9 4 5 1015.4 1016.1 10.6
02/04:00am 7.9 6.1 7.8 99 0.0 ENE 7 11 4 6 1015.5 1016.2 9.6
02/03:30am 8.0 6.2 7.9 99 0.0 ENE 7 11 4 6 1015.5 1016.2 8.6
02/03:00am 8.0 6.4 7.9 99 0.0 ENE 6 9 3 5 1016.4 1017.1 7.6
02/02:30am 8.1 6.3 8.0 99 0.0 ESE 7 9 4 5 1016.9 1017.6 6.6
02/02:00am 8.1 6.2 7.5 96 0.3 ENE 7 11 4 6 1016.7 1017.4 5.4
02/01:30am 8.4 5.6 7.0 91 0.7 WNW 11 15 6 8 1017.6 1018.3 4.2
02/01:00am 8.3 7.1 6.6 89 0.8 WNW 2 9 1 5 1017.8 1018.5 3.0
02/12:30am 8.5 6.0 6.6 88 0.9 WNW 9 17 5 9 1017.6 1018.3 2.2
02/12:00am 8.7 6.0 7.3 91 0.7 NNW 11 17 6 9 1017.7 1018.4 1.4
 
Date/Time
EST
Temp
°C
App
Temp
°C
Dew
Point
Rel
Hum
%
Delta-T
°C
Wind Press
QNH
hPa
Press
MSL
hPa
Rain
since 9 am
mm
Dir
 
Spd
km/h
Gust
km/h
Spd
kts
Gust
kts
01/11:30pm 8.8 6.7 6.8 87 1.0 N 7 13 4 7 1017.8 1018.5 0.6
01/11:00pm 9.4 6.8 5.9 79 1.7 NW 9 15 5 8 1016.8 1017.5 0.2
01/10:30pm 10.1 7.8 5.7 74 2.1 NNW 7 13 4 7 1017.0 1017.7 0.0
01/10:00pm 11.0 7.5 5.3 68 2.7 NW 13 20 7 11 1017.1 1017.8 0.0
01/09:30pm 11.0 8.3 5.5 69 2.6 N 9 13 5 7 1016.9 1017.6 0.0
01/09:00pm 11.1 8.0 5.4 68 2.7 N 11 17 6 9 1016.9 1017.6 0.0
01/08:30pm 10.5 7.9 5.9 73 2.2 N 9 13 5 7 1017.0 1017.7 0.0
01/08:00pm 10.8 7.5 6.4 74 2.1 N 13 19 7 10 1016.9 1017.6 0.0
01/07:30pm 11.1 7.4 6.5 73 2.2 N 15 28 8 15 1016.9 1017.6 0.0
01/07:00pm 11.6 8.3 6.5 71 2.5 N 13 20 7 11 1016.5 1017.2 0.0
01/06:30pm 11.9 8.2 6.4 69 2.7 NNW 15 26 8 14 1015.8 1016.4 0.0
01/06:00pm 12.2 8.9 6.3 67 2.9 NNW 13 22 7 12 1015.8 1016.4 0.0
01/05:30pm 12.3 9.9 6.8 69 2.7 NNW 9 15 5 8 1015.5 1016.2 0.0
01/05:00pm 12.4 8.1 7.1 70 2.6 WNW 19 37 10 20 1014.6 1015.3 0.0
01/04:30pm 13.6 9.2 7.4 66 3.1 NNW 20 30 11 16 1014.2 1014.8 0.0
01/04:00pm 13.3 8.6 7.7 69 2.8 N 22 41 12 22 1012.9 1013.5 0.0
01/03:30pm 12.6 7.4 7.1 69 2.7 NNW 24 39 13 21 1012.8 1013.4 0.0
01/03:00pm 12.5 8.2 6.8 68 2.8 NNW 19 32 10 17 1012.8 1013.4 0.0
01/02:30pm 11.6 6.2 6.5 71 2.5 NW 24 41 13 22 1013.7 1014.4 0.0
01/02:04pm 13.1 6.6 4.5 56 4.1 WNW 28 46 15 25 1014.3 1014.9 0.0
01/02:00pm 13.3 7.6 5.0 57 4.0 WNW 24 37 13 20 1014.1 1014.7 0.0
01/01:30pm 13.7 6.7 4.0 52 4.6 WNW 30 46 16 25 1014.0 1014.6 0.0
01/01:08pm 14.5 7.9 4.2 50 4.9 WNW 28 46 15 25 1013.5 1014.2 0.0
01/01:00pm 14.8 9.3 4.2 49 5.1 NW 22 43 12 23 1013.3 1014.0 0.0
01/12:30pm 14.9 8.9 3.1 45 5.5 WNW 24 43 13 23 1013.1 1013.8 0.0
01/12:00pm 14.5 9.0 1.8 42 5.7 NW 20 39 11 21 1013.5 1014.2 0.0
01/11:30am 14.1 7.9 2.0 44 5.5 WNW 24 39 13 21 1013.9 1014.5 0.0
01/11:00am 13.0 8.1 4.2 55 4.1 NW 19 33 10 18 1014.5 1015.1 0.0
01/10:30am 10.8 5.9 4.3 64 3.0 NNW 19 32 10 17 1014.9 1015.6 0.0
01/10:00am 11.8 6.1 4.8 62 3.3 WNW 24 37 13 20 1014.9 1015.6 0.0
01/09:30am 10.6 5.5 4.3 65 2.9 NW 20 41 11 22 1015.4 1016.5 0.0
01/09:00am 8.6 3.9 3.4 70 2.3 N 17 24 9 13 1015.3 1016.4 0.0
01/08:30am 9.0 3.8 3.4 68 2.5 N 20 32 11 17 1015.2 1016.3 0.0
01/08:00am 7.9 3.3 3.8 75 1.8 N 17 30 9 16 1015.4 1016.5 0.0
01/07:30am 7.3 3.0 3.4 76 1.7 NNW 15 22 8 12 1015.4 1016.5 0.0
01/07:00am 7.3 3.0 3.4 76 1.7 NNW 15 26 8 14 1015.8 1016.8 0.0
01/06:30am 7.5 3.6 3.6 76 1.7 NW 13 24 7 13 1015.8 1016.8 0.0
01/06:00am 6.9 3.4 3.7 80 1.4 NW 11 17 6 9 1015.4 1016.5 0.0
01/05:30am 6.7 3.3 3.9 82 1.2 WNW 11 15 6 8 1015.8 1016.8 0.0
01/05:00am 7.1 4.2 4.6 84 1.1 NW 9 17 5 9 1016.2 1017.2 0.0
01/04:30am 6.9 4.0 4.7 86 1.0 NNW 9 17 5 9 1016.6 1017.7 0.0
01/04:00am 5.5 3.1 5.1 97 0.2 NNW 7 13 4 7 1016.8 1017.9 0.0
01/03:30am 2.8 0.3 1.6 92 0.5 ESE 4 7 2 4 1017.2 1018.3 0.0
01/03:00am 3.3 1.5 1.5 88 0.7 CALM 0 0 0 0 1017.8 1018.8 0.0
01/02:30am 3.9 1.1 2.9 93 0.4 ENE 7 13 4 7 1018.5 1019.6 0.0
01/02:00am 3.7 1.3 2.2 90 0.6 E 4 9 2 5 1018.9 1020.0 0.0
01/01:30am 3.9 1.5 2.1 88 0.7 E 4 7 2 4 1018.8 1019.9 0.0
01/01:00am 4.7 2.2 1.6 80 1.3 NNW 4 9 2 5 1018.9 1020.0 0.0
01/12:30am 5.7 2.1 2.9 82 1.2 NNW 11 15 6 8 1019.4 1020.4 0.0
01/12:00am 6.5 3.3 2.9 78 1.5 NNW 9 13 5 7 1019.5 1020.6 0.0
 
Date/Time
EST
Temp
°C
App
Temp
°C
Dew
Point
Rel
Hum
%
Delta-T
°C
Wind Press
QNH
hPa
Press
MSL
hPa
Rain
since 9 am
mm
Dir
 
Spd
km/h
Gust
km/h
Spd
kts
Gust
kts
31/11:30pm 6.8 2.9 3.6 80 1.4 NNE 13 19 7 10 1019.9 1021.0 0.0
31/11:00pm 6.9 4.2 3.7 80 1.4 NNE 7 15 4 8 1020.4 1021.5 0.0
31/10:30pm 6.8 3.8 3.9 82 1.3 N 9 13 5 7 1020.6 1021.7 0.0
31/10:00pm 4.2 0.9 2.7 90 0.6 N 9 11 5 6 1020.7 1021.8 0.0
31/09:30pm 3.5 1.7 1.5 87 0.8 CALM 0 0 0 0 1021.1 1022.2 0.0
31/09:00pm 4.2 1.1 1.6 83 1.1 NNE 7 9 4 5 1020.6 1021.7 0.0
31/08:30pm 4.8 1.9 1.6 80 1.3 NE 6 9 3 5 1020.5 1021.6 0.0
31/08:00pm 6.1 4.3 1.4 72 1.9 CALM 0 6 0 3 1020.3 1021.4 0.0
31/07:30pm 8.4 5.1 2.2 65 2.7 NW 9 15 5 8 1020.3 1021.4 0.0
31/07:00pm 8.5 4.8 2.1 64 2.8 N 11 15 6 8 1020.0 1021.1 0.0
31/06:30pm 9.1 5.4 2.4 63 2.9 N 11 17 6 9 1019.9 1021.0 0.0
31/06:00pm 9.6 5.5 2.2 60 3.2 N 13 17 7 9 1019.7 1020.8 0.0
31/05:30pm 10.6 7.3 2.2 56 3.7 N 9 15 5 8 1019.3 1020.3 0.0
31/05:00pm 11.8 7.7 2.3 52 4.2 NNW 13 19 7 10 1018.9 1020.0 0.0
31/04:30pm 13.0 8.5 2.3 48 4.8 NNW 15 30 8 16 1018.6 1019.7 0.0
31/04:00pm 13.8 8.9 -0.3 38 6.0 NW 15 22 8 12 1018.4 1019.5 0.0
31/03:30pm 14.1 9.0 0.7 40 5.9 NW 17 24 9 13 1018.5 1019.6 0.0
31/03:00pm 14.2 8.7 0.8 40 5.9 NW 19 26 10 14 1018.6 1019.7 0.0
31/02:30pm 14.5 9.5 1.4 41 5.9 NW 17 26 9 14 1018.5 1019.6 0.0
31/02:00pm 14.2 9.3 2.1 44 5.5 NW 17 24 9 13 1018.4 1019.5 0.0
31/01:30pm 14.5 10.6 3.6 48 5.1 NNW 13 22 7 12 1018.6 1019.7 0.0
31/01:00pm 14.1 9.7 2.7 46 5.2 NNW 15 20 8 11 1019.1 1020.2 0.0
31/12:30pm 14.1 9.8 3.3 48 5.0 NW 15 22 8 12 1019.6 1020.7 0.0
31/12:00pm 13.4 9.6 3.8 52 4.5 NW 13 20 7 11 1019.9 1021.0 0.0
31/11:30am 13.2 9.3 3.6 52 4.5 NW 13 20 7 11 1020.2 1021.3 0.0
31/11:00am 12.5 8.6 3.5 54 4.1 NNW 13 19 7 10 1020.3 1021.4 0.0

Other Formats:

Comma delimited format used in spreadsheet applications
http://www.bom.gov.au/fwo/IDN60801/IDN60801.94925.axf

JavaScript Object Notation format (JSON) in row-major order
http://www.bom.gov.au/fwo/IDN60801/IDN60801.94925.json